^^
Station Historical Data
Daily Summary for February 8, 2018 Units:  English    Metric   Both
« Previous Day
Next Day »
Daily Weekly Monthly Yearly Custom
  High: Low: Average:
Temperature: TemperatureC °F -12.8 °F -5.6 °F
Dew Point: DewpointC °F -14.2 °F -6.7 °F
Humidity: Humidity% 88% 92%
Wind Speed: WindSpeedKMHmph 0.0mph 0.1mph
Wind Gust: WindSpeedGustKMHmph - -
Wind- - SSE
Pressure: PressurehPa in 1015.1 in -
Precipitation: 0.5 in    
Historical Graphs
 
 
Tabular Data for February 8, 2018
Time Temperature Dew Point Pressure Wind Wind Speed Wind Gust Humidity Rainfall Rate (Hourly) solar Conditions
TemperatureC °F DewpointC °F PressurehPa in Calm     Humidity% HourlyPrecipMM in SoftwareType W/m2 Conditions
00:01 -9.1 °F -10.3 °F 1015.1 in Calm     91% 0.0 in WeatherDisplay:10.37 W/m2 RA
00:06 -9.2 °F -10.4 °F 1015.1 in Calm     91% 0.0 in WeatherDisplay:10.37 W/m2 RA
00:11 -9.2 °F -10.4 °F 1015.1 in Calm     91% 0.0 in WeatherDisplay:10.37 W/m2 FEW
00:16 -9.3 °F -10.6 °F 1015.1 in Calm     91% 0.0 in WeatherDisplay:10.37 W/m2 FEW
00:21 -9.4 °F -10.6 °F 1015.5 in Calm     91% 0.0 in WeatherDisplay:10.37 W/m2 FEW
00:26 -9.4 °F -10.7 °F 1015.1 in Calm     91% 0.0 in WeatherDisplay:10.37 W/m2 FEW
00:31 -9.6 °F -10.9 °F 1015.5 in Calm     90% 0.0 in WeatherDisplay:10.37 W/m2 FEW
00:36 -9.7 °F -11.0 °F 1015.5 in Calm     90% 0.0 in WeatherDisplay:10.37 W/m2 FEW
00:41 -9.8 °F -11.1 °F 1015.5 in Calm     90% 0.0 in WeatherDisplay:10.37 W/m2 FEW
00:46 -9.9 °F -11.2 °F 1015.5 in Calm     90% 0.0 in WeatherDisplay:10.37 W/m2 FEW
00:51 -10.1 °F -11.5 °F 1015.5 in Calm     89% 0.0 in WeatherDisplay:10.37 W/m2 FEW
00:56 -10.2 °F -11.6 °F 1015.5 in Calm     90% 0.0 in WeatherDisplay:10.37 W/m2 FEW
01:01 -10.4 °F -11.8 °F 1015.5 in Calm     89% 0.0 in WeatherDisplay:10.37 W/m2 FEW
01:06 -10.7 °F -12.1 °F 1015.5 in Calm     89% 0.0 in WeatherDisplay:10.37 W/m2 FEW
01:11 -10.8 °F -12.3 °F 1015.5 in Calm     89% 0.0 in WeatherDisplay:10.37 W/m2 FEW
01:16 -11.0 °F -12.4 °F 1015.5 in Calm     89% 0.0 in WeatherDisplay:10.37 W/m2 FEW
01:21 -11.1 °F -12.5 °F 1015.5 in Calm     89% 0.0 in WeatherDisplay:10.37 W/m2 FEW
01:26 -11.2 °F -12.6 °F 1015.8 in Calm     89% 0.0 in WeatherDisplay:10.37 W/m2 FEW
01:31 -11.3 °F -12.8 °F 1015.8 in Calm     89% 0.0 in WeatherDisplay:10.37 W/m2 FEW
01:36 -11.5 °F -12.9 °F 1015.8 in Calm     89% 0.0 in WeatherDisplay:10.37 W/m2 FEW
01:41 -11.7 °F -13.1 °F 1015.8 in Calm     89% 0.0 in WeatherDisplay:10.37 W/m2 FEW
01:46 -11.8 °F -13.4 °F 1015.8 in Calm     88% 0.0 in WeatherDisplay:10.37 W/m2 FEW
01:51 -11.9 °F -13.6 °F 1015.8 in Calm     88% 0.0 in WeatherDisplay:10.37 W/m2 FEW
01:56 -12.1 °F -13.5 °F 1015.8 in Calm     89% 0.0 in WeatherDisplay:10.37 W/m2 FEW
02:01 -12.2 °F -13.7 °F 1015.8 in Calm     88% 0.0 in WeatherDisplay:10.37 W/m2 FEW
02:06 -12.2 °F -13.7 °F 1015.8 in Calm     89% 0.0 in WeatherDisplay:10.37 W/m2 FEW
02:11 -12.3 °F -13.8 °F 1015.8 in Calm     89% 0.0 in WeatherDisplay:10.37 W/m2 FEW
02:16 -12.4 °F -13.8 °F 1015.8 in Calm     89% 0.0 in WeatherDisplay:10.37 W/m2 FEW
02:21 -12.4 °F -13.9 °F 1016.1 in Calm     89% 0.0 in WeatherDisplay:10.37 W/m2 FEW
02:26 -12.5 °F -13.9 °F 1016.1 in Calm     89% 0.0 in WeatherDisplay:10.37 W/m2 FEW
02:31 -12.6 °F -14.0 °F 1016.1 in Calm     89% 0.0 in WeatherDisplay:10.37 W/m2 FEW
02:36 -12.7 °F -14.1 °F 1016.1 in Calm     89% 0.0 in WeatherDisplay:10.37 W/m2 FEW
02:41 -12.7 °F -14.2 °F 1016.1 in Calm     89% 0.0 in WeatherDisplay:10.37 W/m2 FEW
02:46 -12.8 °F -14.2 °F 1016.1 in Calm     89% 0.0 in WeatherDisplay:10.37 W/m2 FEW
02:51 -12.8 °F -14.2 °F 1016.1 in Calm     89% 0.0 in WeatherDisplay:10.37 W/m2 FEW
02:56 -12.7 °F -14.2 °F 1016.1 in Calm     89% 0.0 in WeatherDisplay:10.37 W/m2 FEW
03:01 -12.7 °F -13.9 °F 1016.1 in Calm     90% 0.0 in WeatherDisplay:10.37 W/m2 FEW
03:06 -12.7 °F -13.9 °F 1016.1 in Calm     90% 0.0 in WeatherDisplay:10.37 W/m2 FEW
03:11 -12.7 °F -13.9 °F 1016.1 in Calm     90% 0.0 in WeatherDisplay:10.37 W/m2 FEW
03:16 -12.7 °F -14.2 °F 1016.1 in Calm     89% 0.0 in WeatherDisplay:10.37 W/m2 FEW
03:21 -12.7 °F -14.2 °F 1016.1 in Calm     89% 0.0 in WeatherDisplay:10.37 W/m2 FEW
03:26 -12.8 °F -14.2 °F 1016.1 in Calm     89% 0.0 in WeatherDisplay:10.37 W/m2 FEW
03:31 -12.8 °F -14.2 °F 1016.1 in Calm     89% 0.0 in WeatherDisplay:10.37 W/m2 FEW
03:36 -12.8 °F -14.2 °F 1016.1 in Calm     89% 0.0 in WeatherDisplay:10.37 W/m2 FEW
03:41 -12.8 °F -14.1 °F 1016.1 in Calm     90% 0.0 in WeatherDisplay:10.37 W/m2 FEW
03:46 -12.7 °F -13.9 °F 1016.1 in Calm     90% 0.0 in WeatherDisplay:10.37 W/m2 FEW
03:51 -12.6 °F -13.9 °F 1016.1 in Calm     90% 0.0 in WeatherDisplay:10.37 W/m2 FEW
03:56 -12.6 °F -13.8 °F 1016.1 in Calm     90% 0.0 in WeatherDisplay:10.37 W/m2 FEW
04:01 -12.5 °F -13.8 °F 1016.1 in Calm     90% 0.0 in WeatherDisplay:10.37 W/m2 FEW
04:06 -12.4 °F -13.6 °F 1016.5 in Calm     91% 0.0 in WeatherDisplay:10.37 W/m2 FEW
04:11 -12.3 °F -13.6 °F 1016.5 in Calm     90% 0.0 in WeatherDisplay:10.37 W/m2 FEW
04:16 -12.2 °F -13.4 °F 1016.5 in Calm     91% 0.0 in WeatherDisplay:10.37 W/m2 FEW
04:21 -12.2 °F -13.3 °F 1016.5 in Calm     91% 0.0 in WeatherDisplay:10.37 W/m2 FEW
04:26 -12.1 °F -13.2 °F 1016.5 in Calm     91% 0.0 in WeatherDisplay:10.37 W/m2 FEW
04:31 -11.9 °F -13.1 °F 1016.5 in Calm     91% 0.0 in WeatherDisplay:10.37 W/m2 FEW
04:36 -11.7 °F -12.9 °F 1016.8 in Calm     91% 0.0 in WeatherDisplay:10.37 W/m2 FEW
04:41 -11.5 °F -12.6 °F 1016.8 in Calm     92% 0.0 in WeatherDisplay:10.37 W/m2 FEW
04:46 -11.3 °F -12.4 °F 1016.8 in Calm     92% 0.0 in WeatherDisplay:10.37 W/m2 FEW
04:51 -11.2 °F -12.2 °F 1016.8 in Calm     92% 0.0 in WeatherDisplay:10.37 W/m2 FEW
04:56 -11.0 °F -12.1 °F 1016.8 in Calm     92% 0.0 in WeatherDisplay:10.37 W/m2 FEW
05:01 -10.8 °F -11.9 °F 1016.8 in Calm     92% 0.0 in WeatherDisplay:10.37 W/m2 FEW
05:06 -10.7 °F -11.8 °F 1016.8 in Calm     92% 0.0 in WeatherDisplay:10.37 W/m2 FEW
05:11 -10.6 °F -11.7 °F 1016.8 in Calm     92% 0.0 in WeatherDisplay:10.37 W/m2 FEW
05:16 -10.6 °F -11.6 °F 1016.8 in Calm     92% 0.0 in WeatherDisplay:10.37 W/m2 FEW
05:21 -10.4 °F -11.5 °F 1016.8 in Calm     92% 0.0 in WeatherDisplay:10.37 W/m2 FEW
05:26 -10.4 °F -11.5 °F 1016.8 in Calm     92% 0.0 in WeatherDisplay:10.37 W/m2 FEW
05:31 -10.3 °F -11.4 °F 1016.8 in Calm     92% 0.0 in WeatherDisplay:10.37 W/m2 FEW
05:36 -10.3 °F -11.3 °F 1016.8 in Calm     92% 0.0 in WeatherDisplay:10.37 W/m2 FEW
05:41 -10.2 °F -11.3 °F 1016.8 in Calm     92% 0.0 in WeatherDisplay:10.37 W/m2 FEW
05:46 -10.2 °F -11.2 °F 1016.8 in Calm     92% 0.0 in WeatherDisplay:10.37 W/m2 FEW
05:51 -10.1 °F -11.1 °F 1016.8 in Calm     92% 0.0 in WeatherDisplay:10.37 W/m2 FEW
05:56 -9.9 °F -11.0 °F 1016.8 in Calm     92% 0.0 in WeatherDisplay:10.37 W/m2 FEW
06:01 -9.8 °F -10.8 °F 1017.2 in Calm     92% 0.0 in WeatherDisplay:10.37 W/m2 FEW
06:06 -9.7 °F -10.6 °F 1016.8 in Calm     93% 0.0 in WeatherDisplay:10.37 W/m2 FEW
06:11 -9.4 °F -10.4 °F 1017.2 in Calm     93% 0.0 in WeatherDisplay:10.37 W/m2 FEW
06:16 -9.3 °F -10.2 °F 1017.2 in Calm     93% 0.0 in WeatherDisplay:10.37 W/m2 FEW
06:21 -9.1 °F -10.1 °F 1017.2 in Calm     93% 0.0 in WeatherDisplay:10.37 W/m2 FEW
06:26 -8.9 °F -9.9 °F 1017.2 in Calm     93% 0.0 in WeatherDisplay:10.37 W/m2 FEW
06:31 -8.8 °F -9.7 °F 1017.2 in Calm     93% 0.0 in WeatherDisplay:10.37 W/m2 FEW
06:36 -8.7 °F -9.6 °F 1017.2 in Calm     93% 0.0 in WeatherDisplay:10.37 W/m2 FEW
06:41 -8.5 °F -9.4 °F 1017.2 in Calm     93% 0.0 in WeatherDisplay:10.37 W/m2 FEW
06:46 -8.3 °F -9.3 °F 1017.2 in Calm     93% 0.0 in WeatherDisplay:10.37 W/m2 FEW
06:51 -8.3 °F -9.2 °F 1017.2 in Calm     93% 0.0 in WeatherDisplay:10.37 W/m2 FEW
06:56 -8.1 °F -9.1 °F 1017.2 in Calm     93% 0.0 in WeatherDisplay:10.37 W/m2 FEW
07:01 -7.9 °F -8.9 °F 1017.2 in Calm     93% 0.0 in WeatherDisplay:10.37 W/m2 FEW
07:06 -7.8 °F -8.7 °F 1017.2 in Calm     93% 0.0 in WeatherDisplay:10.37 W/m2 FEW
07:11 -7.7 °F -8.6 °F 1017.2 in Calm     93% 0.0 in WeatherDisplay:10.37 W/m2 FEW
07:16 -7.5 °F -8.4 °F 1017.2 in Calm     93% 0.0 in WeatherDisplay:10.37 W/m2 FEW
07:21 -7.4 °F -8.4 °F 1017.5 in Calm     93% 0.0 in WeatherDisplay:10.37 W/m2 FEW
07:26 -7.3 °F -8.3 °F 1017.5 in Calm     93% 0.0 in WeatherDisplay:10.37 W/m2 FEW
07:31 -7.2 °F -8.2 °F 1017.5 in Calm     93% 0.0 in WeatherDisplay:10.37 W/m2 FEW
07:36 -7.1 °F -8.1 °F 1017.5 in Calm     93% 0.0 in WeatherDisplay:10.37 W/m2 FEW
07:41 -6.9 °F -7.9 °F 1017.5 in Calm     93% 0.0 in WeatherDisplay:10.37 W/m2 FEW
07:46 -6.8 °F -7.6 °F 1017.5 in Calm     94% 0.0 in WeatherDisplay:10.37 W/m2 FEW
07:51 -6.6 °F -7.6 °F 1017.5 in Calm     93% 0.0 in WeatherDisplay:10.37 W/m2 FEW
07:56 -6.4 °F -7.3 °F 1017.5 in Calm     94% 0.0 in WeatherDisplay:10.37 W/m2 FEW
08:01 -6.3 °F -7.1 °F 1017.8 in Calm     94% 0.0 in WeatherDisplay:10.37 W/m2 FEW
08:06 -6.2 °F -7.0 °F 1017.8 in Calm     94% 0.0 in WeatherDisplay:10.37 W/m2 FEW
08:11 -6.1 °F -6.9 °F 1017.8 in Calm     94% 0.0 in WeatherDisplay:10.37 W/m2 FEW
08:16 -5.9 °F -6.7 °F 1017.8 in SSE 1.1 mph 5.6 mph 94% 0.0 in WeatherDisplay:10.37 W/m2 FEW
08:21 -5.6 °F -6.4 °F 1017.8 in SSE 0.2 mph   94% 0.0 in WeatherDisplay:10.37 W/m2 FEW
08:26 -5.3 °F -6.2 °F 1017.8 in Calm     94% 0.0 in WeatherDisplay:10.37 W/m2 FEW
08:31 -5.2 °F -6.0 °F 1017.8 in Calm     94% 0.0 in WeatherDisplay:10.37 W/m2 FEW
08:36 -5.1 °F -5.9 °F 1018.2 in Calm     94% 0.0 in WeatherDisplay:10.37 W/m2 FEW
08:41 -4.8 °F -5.7 °F 1018.2 in Calm     94% 0.3 in WeatherDisplay:10.37 W/m2 RA
08:46 -4.7 °F -5.5 °F 1018.2 in Calm     94% 0.5 in WeatherDisplay:10.37 W/m2 RA
08:51 -4.6 °F -5.4 °F 1018.2 in Calm     94% 0.5 in WeatherDisplay:10.37 W/m2 RA
08:56 -4.4 °F -5.3 °F 1018.2 in Calm     94% 0.5 in WeatherDisplay:10.37 W/m2 FEW
09:01 -4.2 °F -5.0 °F 1018.2 in Calm     94% 0.5 in WeatherDisplay:10.37 W/m2 RA
09:06 -4.0 °F -4.8 °F 1018.2 in Calm     94% 0.5 in WeatherDisplay:10.37 W/m2 RA
09:11 -4.0 °F -4.8 °F 1018.2 in Calm     94% 0.5 in WeatherDisplay:10.37 W/m2 FEW
09:16 -3.9 °F -4.8 °F 1018.2 in Calm     94% 0.5 in WeatherDisplay:10.37 W/m2 FEW
09:21 -3.9 °F -4.7 °F 1018.2 in Calm     94% 0.5 in WeatherDisplay:10.37 W/m2 FEW
09:26 -3.8 °F -4.6 °F 1018.2 in Calm     94% 0.5 in WeatherDisplay:10.37 W/m2 FEW
09:31 -3.7 °F -4.6 °F 1018.5 in Calm     94% 0.5 in WeatherDisplay:10.37 W/m2 FEW
09:36 -3.7 °F -4.6 °F 1018.5 in Calm     94% 0.5 in WeatherDisplay:10.37 W/m2 FEW
09:41 -3.7 °F -4.5 °F 1018.5 in Calm     94% 0.5 in WeatherDisplay:10.37 W/m2 FEW
09:46 -3.6 °F -4.4 °F 1018.2 in Calm     94% 0.3 in WeatherDisplay:10.37 W/m2 FEW
09:51 -3.6 °F -4.4 °F 1018.2 in Calm     94% 0.3 in WeatherDisplay:10.37 W/m2 FEW
09:56 -3.5 °F -4.3 °F 1018.2 in Calm     94% 0.3 in WeatherDisplay:10.37 W/m2 FEW
10:01 -3.4 °F -4.3 °F 1018.2 in Calm     94% 0.0 in WeatherDisplay:10.37 W/m2 FEW
10:06 -3.4 °F -4.2 °F 1018.2 in Calm     94% 0.0 in WeatherDisplay:10.37 W/m2 FEW
10:11 -3.3 °F -4.1 °F 1018.2 in Calm     94% 0.0 in WeatherDisplay:10.37 W/m2 FEW
10:16 -3.2 °F -4.1 °F 1018.2 in Calm     94% 0.0 in WeatherDisplay:10.37 W/m2 FEW
10:21 -3.1 °F -3.9 °F 1018.5 in Calm     94% 0.0 in WeatherDisplay:10.37 W/m2 FEW
10:26 -2.9 °F -3.8 °F 1018.5 in South 0.2 mph   94% 0.0 in WeatherDisplay:10.37 W/m2 FEW
10:31 -2.7 °F -3.6 °F 1018.5 in Calm     94% 0.0 in WeatherDisplay:10.37 W/m2 FEW
10:36 -2.5 °F -3.3 °F 1018.5 in SSE 1.0 mph 1.9 mph 94% 0.0 in WeatherDisplay:10.37 W/m2 FEW
10:41 -2.3 °F -3.1 °F 1018.5 in Calm     94% 0.0 in WeatherDisplay:10.37 W/m2 FEW
10:46 -2.1 °F -2.9 °F 1018.5 in Calm     94% 0.0 in WeatherDisplay:10.37 W/m2 FEW
10:51 -2.0 °F -2.8 °F 1018.5 in Calm     94% 0.0 in WeatherDisplay:10.37 W/m2 FEW
10:57 -1.8 °F -2.7 °F 1018.5 in Calm     94% 0.0 in WeatherDisplay:10.37 W/m2 FEW
11:02 -1.8 °F -2.6 °F 1018.5 in Calm   1.9 mph 94% 0.0 in WeatherDisplay:10.37 W/m2 FEW
11:07 -1.7 °F -2.6 °F 1018.5 in Calm     94% 0.0 in WeatherDisplay:10.37 W/m2 FEW
11:12 -1.7 °F -2.6 °F 1018.8 in Calm     94% 0.0 in WeatherDisplay:10.37 W/m2 FEW
11:17 -1.8 °F -2.6 °F 1018.8 in Calm     94% 0.0 in WeatherDisplay:10.37 W/m2 FEW
11:22 -1.8 °F -2.7 °F 1018.8 in Calm     94% 0.0 in WeatherDisplay:10.37 W/m2 FEW
11:27 -1.9 °F -2.7 °F 1018.8 in Calm     94% 0.0 in WeatherDisplay:10.37 W/m2 FEW
11:32 -1.8 °F -2.7 °F 1018.8 in Calm     94% 0.0 in WeatherDisplay:10.37 W/m2 FEW
11:37 -1.8 °F -2.8 °F 1018.8 in Calm     93% 0.0 in WeatherDisplay:10.37 W/m2 FEW
11:42 -1.7 °F -2.7 °F 1018.8 in Calm     93% 0.0 in WeatherDisplay:10.37 W/m2 FEW
11:47 -1.7 °F -2.5 °F 1018.8 in Calm     94% 0.0 in WeatherDisplay:10.37 W/m2 FEW
11:52 -1.5 °F -2.3 °F 1018.8 in Calm     94% 0.0 in WeatherDisplay:10.37 W/m2 FEW
11:57 -1.4 °F -2.3 °F 1018.8 in Calm   3.7 mph 94% 0.0 in WeatherDisplay:10.37 W/m2 FEW
12:02 -1.3 °F -2.3 °F 1018.8 in Calm     93% 0.0 in WeatherDisplay:10.37 W/m2 FEW
12:07 -1.3 °F -2.1 °F 1018.8 in Calm     94% 0.0 in WeatherDisplay:10.37 W/m2 FEW
12:12 -1.2 °F -2.2 °F 1018.8 in Calm     93% 0.0 in WeatherDisplay:10.37 W/m2 FEW
12:17 -1.2 °F -2.2 °F 1018.8 in Calm     93% 0.0 in WeatherDisplay:10.37 W/m2 FEW
12:22 -1.2 °F -2.2 °F 1018.8 in Calm     93% 0.0 in WeatherDisplay:10.37 W/m2 FEW
12:27 -1.2 °F -2.2 °F 1018.8 in SSE 0.3 mph 1.6 mph 93% 0.0 in WeatherDisplay:10.37 W/m2 FEW
12:32 -1.1 °F -2.1 °F 1018.8 in SE 2.6 mph 5.6 mph 93% 0.0 in WeatherDisplay:10.37 W/m2 FEW
12:37 -1.1 °F -2.1 °F 1018.8 in Calm     93% 0.0 in WeatherDisplay:10.37 W/m2 FEW
12:42 -1.1 °F -2.1 °F 1018.8 in Calm     93% 0.0 in WeatherDisplay:10.37 W/m2 FEW
12:47 -1.0 °F -2.0 °F 1018.8 in ESE 1.0 mph 3.7 mph 93% 0.0 in WeatherDisplay:10.37 W/m2 FEW
12:52 -0.9 °F -1.9 °F 1019.2 in Calm     93% 0.0 in WeatherDisplay:10.37 W/m2 FEW
12:57 -1.0 °F -2.0 °F 1019.2 in Calm     93% 0.0 in WeatherDisplay:10.37 W/m2 FEW
13:02 -1.0 °F -2.0 °F 1019.2 in Calm     93% 0.0 in WeatherDisplay:10.37 W/m2 FEW
13:07 -1.0 °F -2.0 °F 1019.2 in Calm     93% 0.0 in WeatherDisplay:10.37 W/m2 FEW
13:12 -1.0 °F -2.0 °F 1019.2 in Calm   3.7 mph 93% 0.0 in WeatherDisplay:10.37 W/m2 FEW
13:17 -1.1 °F -2.1 °F 1019.2 in Calm     93% 0.0 in WeatherDisplay:10.37 W/m2 FEW
13:22 -1.1 °F -2.1 °F 1019.2 in SSW 0.3 mph 1.6 mph 93% 0.0 in WeatherDisplay:10.37 W/m2 FEW
13:27 -1.1 °F -2.1 °F 1019.2 in Calm     93% 0.0 in WeatherDisplay:10.37 W/m2 FEW
13:32 -1.1 °F -2.1 °F 1019.2 in Calm     93% 0.0 in WeatherDisplay:10.37 W/m2 FEW
13:37 -1.1 °F -2.1 °F 1019.2 in Calm     93% 0.0 in WeatherDisplay:10.37 W/m2 FEW
13:42 -1.2 °F -2.2 °F 1019.2 in Calm   1.9 mph 93% 0.0 in WeatherDisplay:10.37 W/m2 FEW
13:47 -1.2 °F -2.2 °F 1019.2 in SSW 1.0 mph 3.2 mph 93% 0.0 in WeatherDisplay:10.37 W/m2 FEW
13:52 -1.2 °F -2.2 °F 1019.2 in Calm   3.7 mph 93% 0.0 in WeatherDisplay:10.37 W/m2 FEW
13:57 -1.2 °F -2.2 °F 1019.2 in South 1.1 mph 3.7 mph 93% 0.0 in WeatherDisplay:10.37 W/m2 FEW
14:02 -1.3 °F -2.3 °F 1019.2 in NW 1.1 mph 5.6 mph 93% 0.0 in WeatherDisplay:10.37 W/m2 FEW
14:07 -1.3 °F -2.3 °F 1019.2 in South 2.1 mph 4.8 mph 93% 0.0 in WeatherDisplay:10.37 W/m2 FEW
14:12 -1.3 °F -2.3 °F 1019.2 in Calm   5.6 mph 93% 0.0 in WeatherDisplay:10.37 W/m2 FEW
14:17 -1.4 °F -2.4 °F 1019.2 in SSW 1.0 mph 1.6 mph 93% 0.0 in WeatherDisplay:10.37 W/m2 FEW
14:22 -1.4 °F -2.4 °F 1019.2 in Calm     93% 0.0 in WeatherDisplay:10.37 W/m2 FEW
14:27 -1.4 °F -2.4 °F 1019.2 in Calm     93% 0.0 in WeatherDisplay:10.37 W/m2 FEW
14:32 -1.4 °F -2.6 °F 1019.2 in Calm     92% 0.0 in WeatherDisplay:10.37 W/m2 FEW
14:37 -1.4 °F -2.6 °F 1019.2 in Calm     92% 0.0 in WeatherDisplay:10.37 W/m2 FEW
14:42 -1.4 °F -2.6 °F 1019.2 in Calm     92% 0.0 in WeatherDisplay:10.37 W/m2 FEW
14:47 -1.4 °F -2.4 °F 1019.2 in Calm     93% 0.0 in WeatherDisplay:10.37 W/m2 FEW
14:52 -1.4 °F -2.4 °F 1019.2 in Calm     93% 0.0 in WeatherDisplay:10.37 W/m2 FEW
14:57 -1.3 °F -2.3 °F 1019.2 in Calm     93% 0.0 in WeatherDisplay:10.37 W/m2 FEW
15:02 -1.3 °F -2.3 °F 1019.2 in SE 0.5 mph 5.6 mph 93% 0.0 in WeatherDisplay:10.37 W/m2 FEW
15:07 -1.3 °F -2.4 °F 1019.2 in Calm     92% 0.0 in WeatherDisplay:10.37 W/m2 FEW
15:12 -1.3 °F -2.4 °F 1019.2 in Calm     92% 0.0 in WeatherDisplay:10.37 W/m2 FEW
15:17 -1.4 °F -2.5 °F 1019.2 in Calm     92% 0.0 in WeatherDisplay:10.37 W/m2 FEW
15:22 -1.4 °F -2.6 °F 1019.2 in Calm     92% 0.0 in WeatherDisplay:10.37 W/m2 FEW
15:27 -1.4 °F -2.6 °F 1019.2 in Calm   5.6 mph 92% 0.0 in WeatherDisplay:10.37 W/m2 FEW
15:32 -1.5 °F -2.6 °F 1019.2 in Calm     92% 0.0 in WeatherDisplay:10.37 W/m2 FEW
15:37 -1.4 °F -2.6 °F 1019.5 in Calm     92% 0.0 in WeatherDisplay:10.37 W/m2 FEW
15:42 -1.6 °F -2.7 °F 1019.2 in Calm     92% 0.0 in WeatherDisplay:10.37 W/m2 FEW
15:47 -1.6 °F -2.7 °F 1019.2 in Calm     92% 0.0 in WeatherDisplay:10.37 W/m2 FEW
15:52 -1.6 °F -2.7 °F 1019.5 in South 0.6 mph 3.7 mph 92% 0.0 in WeatherDisplay:10.37 W/m2 FEW
15:57 -1.7 °F -2.8 °F 1019.5 in Calm     92% 0.0 in WeatherDisplay:10.37 W/m2 FEW
16:02 -1.7 °F -2.8 °F 1019.5 in Calm     92% 0.0 in WeatherDisplay:10.37 W/m2 FEW
16:07 -1.8 °F -2.9 °F 1019.5 in SSE 0.2 mph 1.6 mph 92% 0.0 in WeatherDisplay:10.37 W/m2 FEW
16:12 -1.8 °F -2.9 °F 1019.2 in Calm     92% 0.0 in WeatherDisplay:10.37 W/m2 FEW
16:17 -1.8 °F -2.9 °F 1019.5 in Calm     92% 0.0 in WeatherDisplay:10.37 W/m2 FEW
16:22 -1.9 °F -2.9 °F 1019.5 in Calm     93% 0.0 in WeatherDisplay:10.37 W/m2 FEW
16:27 -1.9 °F -2.9 °F 1019.5 in Calm     93% 0.0 in WeatherDisplay:10.37 W/m2 FEW
16:32 -1.9 °F -2.9 °F 1019.5 in Calm     93% 0.0 in WeatherDisplay:10.37 W/m2 FEW
16:37 -1.9 °F -2.9 °F 1019.5 in Calm     93% 0.0 in WeatherDisplay:10.37 W/m2 FEW
16:42 -2.0 °F -3.0 °F 1019.5 in Calm     93% 0.0 in WeatherDisplay:10.37 W/m2 FEW
16:47 -2.1 °F -3.1 °F 1019.5 in Calm     93% 0.0 in WeatherDisplay:10.37 W/m2 FEW
16:52 -2.1 °F -3.1 °F 1019.5 in Calm     93% 0.0 in WeatherDisplay:10.37 W/m2 FEW
16:57 -2.2 °F -3.2 °F 1019.9 in ESE 0.2 mph 1.9 mph 93% 0.0 in WeatherDisplay:10.37 W/m2 FEW
17:02 -2.2 °F -3.2 °F 1019.9 in Calm     93% 0.0 in WeatherDisplay:10.37 W/m2 FEW
17:07 -2.3 °F -3.3 °F 1019.9 in SE 0.8 mph 5.6 mph 93% 0.0 in WeatherDisplay:10.37 W/m2 FEW
17:12 -2.3 °F -3.3 °F 1019.9 in Calm     93% 0.0 in WeatherDisplay:10.37 W/m2 FEW
17:17 -2.4 °F -3.5 °F 1019.9 in Calm     92% 0.0 in WeatherDisplay:10.37 W/m2 FEW
17:22 -2.4 °F -3.6 °F 1019.9 in SSE 0.2 mph 1.9 mph 92% 0.0 in WeatherDisplay:10.37 W/m2 FEW
17:27 -2.5 °F -3.6 °F 1019.9 in Calm     92% 0.0 in WeatherDisplay:10.37 W/m2 FEW
17:32 -2.6 °F -3.7 °F 1019.9 in SSE 1.1 mph   92% 0.0 in WeatherDisplay:10.37 W/m2 FEW
17:37 -2.7 °F -3.8 °F 1019.9 in Calm     92% 0.0 in WeatherDisplay:10.37 W/m2 FEW
17:42 -2.7 °F -3.8 °F 1019.9 in Calm     92% 0.0 in WeatherDisplay:10.37 W/m2 FEW
17:47 -2.8 °F -3.9 °F 1019.9 in Calm     92% 0.0 in WeatherDisplay:10.37 W/m2 FEW
17:52 -2.8 °F -3.9 °F 1019.9 in Calm     92% 0.0 in WeatherDisplay:10.37 W/m2 FEW
17:57 -2.8 °F -3.9 °F 1019.5 in Calm     92% 0.0 in WeatherDisplay:10.37 W/m2 FEW
18:02 -2.9 °F -4.0 °F 1019.9 in Calm     92% 0.0 in WeatherDisplay:10.37 W/m2 FEW
18:07 -2.9 °F -4.1 °F 1019.9 in Calm     92% 0.0 in WeatherDisplay:10.37 W/m2 FEW
18:12 -3.0 °F -4.0 °F 1019.9 in Calm     93% 0.0 in WeatherDisplay:10.37 W/m2 FEW
18:17 -3.1 °F -4.2 °F 1019.9 in Calm     92% 0.0 in WeatherDisplay:10.37 W/m2 FEW
18:22 -3.1 °F -4.2 °F 1019.9 in Calm     92% 0.0 in WeatherDisplay:10.37 W/m2 FEW
18:27 -3.1 °F -4.2 °F 1019.9 in Calm     92% 0.0 in WeatherDisplay:10.37 W/m2 FEW
18:32 -3.1 °F -4.1 °F 1019.9 in Calm     93% 0.0 in WeatherDisplay:10.37 W/m2 FEW
18:37 -3.1 °F -4.1 °F 1019.9 in Calm     93% 0.0 in WeatherDisplay:10.37 W/m2 FEW
18:42 -3.1 °F -4.1 °F 1019.9 in Calm     93% 0.0 in WeatherDisplay:10.37 W/m2 FEW
18:47 -3.1 °F -4.1 °F 1019.9 in Calm     93% 0.0 in WeatherDisplay:10.37 W/m2 FEW
18:52 -3.1 °F -4.1 °F 1019.9 in Calm     93% 0.0 in WeatherDisplay:10.37 W/m2 FEW
18:57 -3.1 °F -4.1 °F 1019.9 in Calm     93% 0.0 in WeatherDisplay:10.37 W/m2 FEW
19:02 -3.2 °F -4.1 °F 1019.9 in Calm     93% 0.0 in WeatherDisplay:10.37 W/m2 FEW
19:07 -3.2 °F -4.1 °F 1019.9 in Calm     93% 0.0 in WeatherDisplay:10.37 W/m2 FEW
19:12 -3.2 °F -4.2 °F 1019.9 in Calm     93% 0.0 in WeatherDisplay:10.37 W/m2 FEW
19:17 -3.2 °F -4.2 °F 1019.9 in Calm     93% 0.0 in WeatherDisplay:10.37 W/m2 FEW
19:22 -3.3 °F -4.2 °F 1019.9 in Calm     93% 0.0 in WeatherDisplay:10.37 W/m2 FEW
19:27 -3.3 °F -4.4 °F 1019.9 in Calm   3.7 mph 92% 0.0 in WeatherDisplay:10.37 W/m2 FEW
19:32 -3.3 °F -4.4 °F 1019.9 in SSE 1.3 mph 5.6 mph 92% 0.0 in WeatherDisplay:10.37 W/m2 FEW
19:37 -3.4 °F -4.5 °F 1019.9 in SSE 1.0 mph 5.6 mph 92% 0.0 in WeatherDisplay:10.37 W/m2 FEW
19:42 -3.4 °F -4.6 °F 1019.9 in SSE 0.2 mph 3.7 mph 92% 0.0 in WeatherDisplay:10.37 W/m2 FEW
19:47 -3.4 °F -4.6 °F 1019.9 in Calm     92% 0.0 in WeatherDisplay:10.37 W/m2 FEW
19:52 -3.5 °F -4.6 °F 1019.9 in ESE 0.3 mph 3.7 mph 92% 0.0 in WeatherDisplay:10.37 W/m2 FEW
19:57 -3.6 °F -4.7 °F 1019.9 in Calm     92% 0.0 in WeatherDisplay:10.37 W/m2 FEW
20:02 -3.7 °F -4.8 °F 1019.9 in Calm     92% 0.0 in WeatherDisplay:10.37 W/m2 FEW
20:07 -3.7 °F -4.8 °F 1019.9 in Calm     92% 0.0 in WeatherDisplay:10.37 W/m2 FEW
20:12 -3.8 °F -4.9 °F 1019.9 in Calm     92% 0.0 in WeatherDisplay:10.37 W/m2 FEW
20:17 -3.8 °F -5.1 °F 1019.9 in Calm     91% 0.0 in WeatherDisplay:10.37 W/m2 FEW
20:22 -3.9 °F -5.2 °F 1019.9 in Calm     91% 0.0 in WeatherDisplay:10.37 W/m2 FEW
20:27 -4.1 °F -5.4 °F 1019.9 in Calm     91% 0.0 in WeatherDisplay:10.37 W/m2 FEW
20:32 -4.3 °F -5.5 °F 1019.9 in Calm     91% 0.0 in WeatherDisplay:10.37 W/m2 FEW
20:37 -4.4 °F -5.7 °F 1020.2 in Calm     91% 0.0 in WeatherDisplay:10.37 W/m2 FEW
20:42 -4.7 °F -5.9 °F 1020.2 in Calm     91% 0.0 in WeatherDisplay:10.37 W/m2 FEW
20:47 -4.8 °F -6.0 °F 1020.2 in Calm     91% 0.0 in WeatherDisplay:10.37 W/m2 FEW
20:52 -4.9 °F -6.2 °F 1020.2 in Calm     91% 0.0 in WeatherDisplay:10.37 W/m2 FEW
20:57 -5.1 °F -6.3 °F 1020.2 in Calm     91% 0.0 in WeatherDisplay:10.37 W/m2 FEW
21:02 -5.3 °F -6.5 °F 1020.2 in Calm     91% 0.0 in WeatherDisplay:10.37 W/m2 FEW
21:07 -5.4 °F -6.6 °F 1020.5 in Calm     91% 0.0 in WeatherDisplay:10.37 W/m2 FEW
21:12 -5.4 °F -6.5 °F 1020.5 in Calm     92% 0.0 in WeatherDisplay:10.37 W/m2 FEW
21:17 -5.4 °F -6.6 °F 1020.5 in Calm     92% 0.0 in WeatherDisplay:10.37 W/m2 FEW
21:22 -5.5 °F -6.6 °F 1020.2 in Calm     92% 0.0 in WeatherDisplay:10.37 W/m2 FEW
21:27 -5.5 °F -6.6 °F 1020.5 in Calm     92% 0.0 in WeatherDisplay:10.37 W/m2 FEW
21:32 -5.5 °F -6.4 °F 1020.5 in Calm     93% 0.0 in WeatherDisplay:10.37 W/m2 FEW
21:37 -5.4 °F -6.3 °F 1020.5 in Calm     93% 0.0 in WeatherDisplay:10.37 W/m2 FEW
21:42 -5.3 °F -6.2 °F 1020.5 in Calm     93% 0.0 in WeatherDisplay:10.37 W/m2 FEW
21:47 -5.2 °F -6.2 °F 1020.5 in South 0.5 mph 5.6 mph 93% 0.0 in WeatherDisplay:10.37 W/m2 FEW
21:52 -5.1 °F -6.1 °F 1020.5 in SSE 0.6 mph 5.6 mph 93% 0.0 in WeatherDisplay:10.37 W/m2 FEW
21:57 -5.1 °F -6.0 °F 1020.5 in Calm     93% 0.0 in WeatherDisplay:10.37 W/m2 FEW
22:02 -5.0 °F -5.9 °F 1020.5 in SSE 2.3 mph 5.6 mph 93% 0.0 in WeatherDisplay:10.37 W/m2 FEW
22:07 -5.0 °F -5.9 °F 1020.5 in Calm     93% 0.0 in WeatherDisplay:10.37 W/m2 FEW
22:12 -5.0 °F -5.9 °F 1020.5 in Calm     93% 0.0 in WeatherDisplay:10.37 W/m2 FEW
22:17 -4.9 °F -5.9 °F 1020.9 in Calm     93% 0.0 in WeatherDisplay:10.37 W/m2 FEW
22:22 -4.9 °F -5.9 °F 1020.9 in Calm     93% 0.0 in WeatherDisplay:10.37 W/m2 FEW
22:27 -4.9 °F -5.9 °F 1020.9 in Calm     93% 0.0 in WeatherDisplay:10.37 W/m2 FEW
22:32 -4.9 °F -5.9 °F 1020.9 in Calm     93% 0.0 in WeatherDisplay:10.37 W/m2 FEW
22:37 -5.0 °F -5.9 °F 1020.9 in Calm     93% 0.0 in WeatherDisplay:10.37 W/m2 FEW
22:43 -5.0 °F -5.9 °F 1020.9 in Calm     93% 0.0 in WeatherDisplay:10.37 W/m2 FEW
22:48 -5.1 °F -6.0 °F 1020.9 in Calm     93% 0.0 in WeatherDisplay:10.37 W/m2 FEW
22:53 -5.1 °F -6.2 °F 1020.9 in Calm     92% 0.0 in WeatherDisplay:10.37 W/m2 FEW
22:58 -5.2 °F -6.3 °F 1020.9 in Calm     92% 0.0 in WeatherDisplay:10.37 W/m2 FEW
23:03 -5.3 °F -6.4 °F 1020.9 in Calm     92% 0.0 in WeatherDisplay:10.37 W/m2 FEW
23:08 -5.5 °F -6.6 °F 1020.9 in Calm     92% 0.0 in WeatherDisplay:10.37 W/m2 FEW
23:13 -5.6 °F -6.8 °F 1020.5 in Calm     91% 0.0 in WeatherDisplay:10.37 W/m2 FEW
23:18 -5.8 °F -7.1 °F 1020.5 in Calm     91% 0.0 in WeatherDisplay:10.37 W/m2 FEW
23:24 -6.1 °F -7.3 °F 1020.5 in Calm     91% 0.0 in WeatherDisplay:10.37 W/m2 FEW
23:29 -6.3 °F -7.6 °F 1020.5 in Calm     91% 0.0 in WeatherDisplay:10.37 W/m2 FEW
23:34 -6.7 °F -7.9 °F 1020.9 in Calm     91% 0.0 in WeatherDisplay:10.37 W/m2 FEW
23:39 -6.9 °F -8.1 °F 1020.9 in Calm     91% 0.0 in WeatherDisplay:10.37 W/m2 FEW
23:44 -7.1 °F -8.3 °F 1020.9 in Calm     91% 0.0 in WeatherDisplay:10.37 W/m2 FEW
23:49 -7.3 °F -8.7 °F 1020.9 in Calm     90% 0.0 in WeatherDisplay:10.37 W/m2 FEW
23:54 -7.6 °F -8.8 °F 1020.9 in Calm     91% 0.0 in WeatherDisplay:10.37 W/m2 FEW
23:59 -7.8 °F -9.0 °F 1020.9 in Calm     91% 0.0 in WeatherDisplay:10.37 W/m2 FEW
Tuulensuunkaari, Veikkola, Suomi
Compliments of Weather Underground - 2.75 mb